Time;durP1;ratioP1;P1;durP2;ratioP2;P2;SDS_P1;SDS_P2;PMS_P1;PMS_P2;Temp;Humidity;BMP_temperature;BMP_pressure;BME280_temperature;BME280_humidity;BME280_pressure;Samples;Min_cycle;Max_cycle;Signal;HPM_P1;HPM_P2
2021/04/28 00:00:01;;;;;;;;;;;;;;;21.53;23.08;98862.62;4356307;32;19951;-58
2021/04/28 00:02:27;;;;;;;;;;;;;;;21.51;22.99;98856.50;4356078;32;19984;-57
2021/04/28 00:04:53;;;;;;;;;;;;;;;21.42;23.11;98857.53;4366501;32;19966;-58
2021/04/28 00:07:19;;;;;;;;;;;;;;;21.43;23.09;98853.13;4356509;32;19951;-59
2021/04/28 00:09:45;;;;;;;;;;;;;;;21.42;23.07;98846.03;4356003;32;19952;-58
2021/04/28 00:12:11;;;;;;;;;;;;;;;21.55;22.86;98842.31;4356632;32;19995;-59
2021/04/28 00:14:37;;;;;;;;;;;;;;;21.47;22.99;98841.56;4368238;32;19959;-58
2021/04/28 00:17:02;;;;;;;;;;;;;;;21.42;22.94;98832.81;4370647;32;19954;-57
2021/04/28 00:19:28;;;;;;;;;;;;;;;21.40;22.95;98831.97;4360109;32;19982;-58
2021/04/28 00:21:54;;;;;;;;;;;;;;;21.47;22.88;98833.63;4356555;32;20362;-59
2021/04/28 00:24:20;;;;;;;;;;;;;;;21.51;22.94;98830.00;4365041;32;20041;-58
2021/04/28 00:26:46;;;;;;;;;;;;;;;21.52;22.72;98837.03;4371533;32;19955;-58
2021/04/28 00:29:12;;;;;;;;;;;;;;;21.54;22.77;98839.69;4362994;32;20300;-59
2021/04/28 00:31:38;;;;;;;;;;;;;;;21.54;22.65;98837.88;4369446;32;19991;-59
2021/04/28 00:34:04;;;;;;;;;;;;;;;21.50;22.91;98833.56;4366462;32;20004;-58
2021/04/28 00:36:30;;;;;;;;;;;;;;;21.46;22.85;98832.72;4359949;32;19962;-58
2021/04/28 00:38:55;;;;;;;;;;;;;;;21.55;22.86;98834.37;4361498;32;19955;-57
2021/04/28 00:41:21;;;;;;;;;;;;;;;21.53;22.80;98836.16;4369256;32;20397;-59
2021/04/28 00:43:47;;;;;;;;;;;;;;;21.48;22.82;98836.25;4364591;32;20013;-58
2021/04/28 00:46:13;;;;;;;;;;;;;;;21.41;22.83;98831.06;4367282;32;19985;-59
2021/04/28 00:48:39;;;;;;;;;;;;;;;21.52;22.65;98831.75;4363744;32;20300;-58
2021/04/28 00:51:05;;;;;;;;;;;;;;;21.52;22.85;98825.59;4362422;32;20007;-58
2021/04/28 00:53:31;;;;;;;;;;;;;;;21.49;22.90;98823.88;4367940;32;20414;-58
2021/04/28 00:55:57;;;;;;;;;;;;;;;21.51;22.73;98823.84;4367457;32;19959;-58
2021/04/28 00:58:23;;;;;;;;;;;;;;;21.47;22.88;98817.72;4366496;32;20131;-57
2021/04/28 01:00:49;;;;;;;;;;;;;;;21.47;22.81;98817.72;4366538;32;20007;-58
2021/04/28 01:03:15;;;;;;;;;;;;;;;21.51;22.68;98816.75;4365681;32;19955;-58
2021/04/28 01:05:40;;;;;;;;;;;;;;;21.45;22.61;98817.75;4366200;32;20040;-58
2021/04/28 01:08:06;;;;;;;;;;;;;;;21.43;22.96;98821.34;4367238;32;19965;-59
2021/04/28 01:10:32;;;;;;;;;;;;;;;21.39;22.80;98815.22;4365548;32;19980;-58
2021/04/28 01:12:58;;;;;;;;;;;;;;;21.40;22.96;98811.66;4366843;32;19955;-58
2021/04/28 01:15:24;;;;;;;;;;;;;;;21.38;23.08;98812.56;4366662;32;20432;-58
2021/04/28 01:17:50;;;;;;;;;;;;;;;21.44;23.00;98812.50;4366113;32;19994;-58
2021/04/28 01:20:16;;;;;;;;;;;;;;;21.50;23.01;98811.50;4366513;32;20347;-58
2021/04/28 01:22:42;;;;;;;;;;;;;;;21.43;23.00;98810.75;4366966;32;19960;-59
2021/04/28 01:25:08;;;;;;;;;;;;;;;21.43;22.85;98810.75;4365604;32;20693;-58
2021/04/28 01:27:33;;;;;;;;;;;;;;;21.36;22.94;98809.97;4366871;32;19956;-58
2021/04/28 01:29:59;;;;;;;;;;;;;;;21.38;22.95;98809.94;4365573;32;20473;-58
2021/04/28 01:32:25;;;;;;;;;;;;;;;21.37;23.09;98805.53;4365027;32;19995;-58
2021/04/28 01:34:51;;;;;;;;;;;;;;;21.43;22.65;98808.94;4365423;32;19970;-58
2021/04/28 01:37:17;;;;;;;;;;;;;;;21.27;23.34;98804.81;4366874;32;19936;-58
2021/04/28 01:39:43;;;;;;;;;;;;;;;21.27;23.29;98804.81;4365146;32;20615;-56
2021/04/28 01:42:09;;;;;;;;;;;;;;;21.25;23.32;98799.53;4365105;32;19944;-58
2021/04/28 01:44:36;;;;;;;;;;;;;;;21.29;23.24;98803.87;4365828;32;19956;-58
2021/04/28 01:47:02;;;;;;;;;;;;;;;21.21;23.45;98811.09;4365538;32;20371;-58
2021/04/28 01:49:28;;;;;;;;;;;;;;;21.28;23.16;98807.44;4364727;32;19951;-58
2021/04/28 01:51:54;;;;;;;;;;;;;;;21.23;23.46;98804.00;4374215;32;20018;-58
2021/04/28 01:54:20;;;;;;;;;;;;;;;21.29;23.21;98806.53;4373751;32;19989;-58
2021/04/28 01:56:46;;;;;;;;;;;;;;;21.30;23.03;98802.13;4358838;32;20508;-58
2021/04/28 01:59:11;;;;;;;;;;;;;;;21.29;23.25;98793.28;4357718;32;19939;-58
2021/04/28 02:01:37;;;;;;;;;;;;;;;21.22;23.08;98796.94;4371373;32;19971;-58
2021/04/28 02:04:03;;;;;;;;;;;;;;;21.20;23.24;98790.81;4373657;32;19988;-58
2021/04/28 02:06:29;;;;;;;;;;;;;;;21.16;23.57;98791.75;4360386;32;19958;-59
2021/04/28 02:08:55;;;;;;;;;;;;;;;21.10;23.30;98786.56;4358723;32;19955;-58
2021/04/28 02:11:21;;;;;;;;;;;;;;;21.20;23.32;98788.16;4369386;32;19947;-57
2021/04/28 02:13:47;;;;;;;;;;;;;;;21.22;23.14;98789.00;4373664;32;19959;-58
2021/04/28 02:16:13;;;;;;;;;;;;;;;21.23;23.25;98792.50;4363832;32;19939;-58
2021/04/28 02:18:38;;;;;;;;;;;;;;;21.23;23.33;98785.47;4358199;32;19952;-58
2021/04/28 02:21:04;;;;;;;;;;;;;;;21.19;23.19;98787.28;4365867;32;19950;-58
2021/04/28 02:23:30;;;;;;;;;;;;;;;21.18;23.36;98779.38;4373781;32;19943;-58
2021/04/28 02:25:56;;;;;;;;;;;;;;;21.09;23.47;98782.16;4367063;32;19970;-59
2021/04/28 02:28:22;;;;;;;;;;;;;;;21.11;23.40;98775.94;4358479;32;20083;-57
2021/04/28 02:30:48;;;;;;;;;;;;;;;21.21;23.36;98774.03;4358526;32;19947;-59
2021/04/28 02:33:14;;;;;;;;;;;;;;;21.22;23.10;98770.47;4358449;32;19994;-58
2021/04/28 02:35:43;;;;;;;;;;;;;;;21.13;23.47;98767.97;4360598;32;19970;-58
2021/04/28 02:38:08;;;;;;;;;;;;;;;21.12;23.36;98763.59;4373203;32;19958;-57
2021/04/28 02:40:34;;;;;;;;;;;;;;;21.13;23.29;98765.34;4369400;32;19983;-58
2021/04/28 02:43:00;;;;;;;;;;;;;;;21.11;23.48;98753.91;4358015;32;19959;-59
2021/04/28 02:45:26;;;;;;;;;;;;;;;21.08;23.62;98751.31;4358702;32;19944;-58
2021/04/28 02:47:52;;;;;;;;;;;;;;;21.04;23.69;98746.03;4373693;32;19996;-58
2021/04/28 02:50:18;;;;;;;;;;;;;;;21.09;23.62;98747.75;4371169;32;19961;-58
2021/04/28 02:52:44;;;;;;;;;;;;;;;21.10;23.24;98749.50;4358420;32;19979;-58
2021/04/28 02:55:10;;;;;;;;;;;;;;;20.97;23.91;98746.16;4358487;32;20410;-58
2021/04/28 02:57:36;;;;;;;;;;;;;;;21.00;23.62;98748.78;4371933;32;19950;-58
2021/04/28 03:00:02;;;;;;;;;;;;;;;21.01;23.81;98745.25;4372496;32;19994;-58
2021/04/28 03:02:28;;;;;;;;;;;;;;;20.97;24.06;98748.81;4372702;32;20327;-58
2021/04/28 03:04:54;;;;;;;;;;;;;;;20.98;23.74;98746.16;4372501;32;19951;-58
2021/04/28 03:07:20;;;;;;;;;;;;;;;20.94;23.89;98741.81;4361264;32;19948;-58
2021/04/28 03:09:45;;;;;;;;;;;;;;;20.95;23.95;98751.50;4357941;32;19971;-58
2021/04/28 03:12:11;;;;;;;;;;;;;;;20.81;23.98;98749.06;4366584;32;20574;-58
2021/04/28 03:14:37;;;;;;;;;;;;;;;20.86;24.05;98747.22;4372180;32;19978;-58
2021/04/28 03:17:03;;;;;;;;;;;;;;;20.86;23.93;98746.34;4364093;32;19951;-58
2021/04/28 03:19:29;;;;;;;;;;;;;;;20.88;24.02;98748.09;4356776;32;19993;-59
2021/04/28 03:21:55;;;;;;;;;;;;;;;20.99;23.71;98742.63;4364233;32;19993;-58
2021/04/28 03:24:21;;;;;;;;;;;;;;;21.01;23.90;98751.41;4372895;32;19990;-58
2021/04/28 03:26:47;;;;;;;;;;;;;;;20.95;23.90;98746.22;4367319;32;19940;-58
2021/04/28 03:29:13;;;;;;;;;;;;;;;20.98;23.59;98751.44;4356129;32;20289;-58
2021/04/28 03:31:39;;;;;;;;;;;;;;;20.95;23.76;98750.63;4360149;32;19959;-58
2021/04/28 03:34:05;;;;;;;;;;;;;;;20.96;23.67;98747.97;4357032;32;19951;-58
2021/04/28 03:36:31;;;;;;;;;;;;;;;21.00;23.74;98744.34;4359778;32;19958;-58
2021/04/28 03:38:57;;;;;;;;;;;;;;;20.99;23.92;98742.63;4371932;32;20004;-58
2021/04/28 03:41:25;;;;;;;;;;;;;;;21.04;23.68;98739.91;4370446;32;20056;-58
2021/04/28 03:43:50;;;;;;;;;;;;;;;21.04;23.80;98751.34;4357540;32;19947;-58
2021/04/28 03:46:17;;;;;;;;;;;;;;;20.99;24.01;98749.66;4357885;32;20193;-58
2021/04/28 03:48:42;;;;;;;;;;;;;;;20.96;23.87;98755.91;4370276;32;19955;-58
2021/04/28 03:51:08;;;;;;;;;;;;;;;20.91;24.06;98755.06;4370689;32;19973;-58
2021/04/28 03:53:34;;;;;;;;;;;;;;;20.87;23.78;98748.97;4357434;32;20340;-58
2021/04/28 03:56:00;;;;;;;;;;;;;;;20.95;23.97;98755.91;4357705;32;19975;-58
2021/04/28 03:58:26;;;;;;;;;;;;;;;20.84;24.04;98750.81;4369441;32;20007;-58
2021/04/28 04:00:52;;;;;;;;;;;;;;;20.85;24.28;98750.75;4372297;32;20010;-58
2021/04/28 04:03:18;;;;;;;;;;;;;;;20.79;24.12;98745.53;4370668;32;20026;-58
2021/04/28 04:05:44;;;;;;;;;;;;;;;20.75;24.37;98749.16;4371035;32;20423;-58
2021/04/28 04:08:09;;;;;;;;;;;;;;;20.86;24.06;98751.66;4362097;32;19939;-58
2021/04/28 04:10:35;;;;;;;;;;;;;;;20.91;24.13;98755.97;4356698;32;20341;-58
2021/04/28 04:13:01;;;;;;;;;;;;;;;20.96;24.00;98755.00;4365718;32;20055;-58
2021/04/28 04:15:27;;;;;;;;;;;;;;;20.90;24.05;98754.22;4371537;32;19951;-58
2021/04/28 04:17:53;;;;;;;;;;;;;;;20.86;24.06;98756.94;4365573;32;19958;-58
2021/04/28 04:20:19;;;;;;;;;;;;;;;20.93;23.77;98755.97;4357442;32;19955;-57
2021/04/28 04:22:45;;;;;;;;;;;;;;;20.87;23.99;98759.56;4366436;32;19959;-58
2021/04/28 04:25:10;;;;;;;;;;;;;;;20.82;24.46;98760.53;4375566;32;19974;-58
2021/04/28 04:27:36;;;;;;;;;;;;;;;20.79;24.22;98761.41;4370736;32;20415;-58
2021/04/28 04:30:02;;;;;;;;;;;;;;;20.73;24.53;98759.72;4358953;32;20005;-58
2021/04/28 04:32:28;;;;;;;;;;;;;;;20.81;24.25;98758.75;4361226;32;20251;-58
2021/04/28 04:34:54;;;;;;;;;;;;;;;20.88;24.02;98765.72;4358287;32;19959;-58
2021/04/28 04:37:20;;;;;;;;;;;;;;;20.83;24.06;98763.12;4361572;32;19988;-57
2021/04/28 04:39:46;;;;;;;;;;;;;;;20.77;24.32;98764.06;4374772;32;19955;-58
2021/04/28 04:42:12;;;;;;;;;;;;;;;20.84;24.08;98764.03;4373988;32;20322;-58
2021/04/28 04:44:38;;;;;;;;;;;;;;;20.78;24.29;98765.81;4359873;32;20296;-58
2021/04/28 04:47:04;;;;;;;;;;;;;;;20.70;24.55;98757.13;4359131;32;19956;-57
2021/04/28 04:49:30;;;;;;;;;;;;;;;20.76;24.29;98766.75;4371210;32;19962;-59
2021/04/28 04:51:55;;;;;;;;;;;;;;;20.74;24.62;98760.59;4374372;32;19958;-58
2021/04/28 04:54:21;;;;;;;;;;;;;;;20.68;24.49;98763.34;4370213;32;19966;-58
2021/04/28 04:56:47;;;;;;;;;;;;;;;20.77;24.11;98758.78;4359625;32;19959;-59
2021/04/28 04:59:13;;;;;;;;;;;;;;;20.76;24.41;98761.47;4370578;32;20355;-58
2021/04/28 05:01:40;;;;;;;;;;;;;;;20.78;24.02;98757.03;4374561;32;19985;-59
2021/04/28 05:04:05;;;;;;;;;;;;;;;20.77;24.44;98757.94;4363380;32;20340;-58
2021/04/28 05:06:32;;;;;;;;;;;;;;;20.68;24.60;98758.94;4359357;32;19948;-59
2021/04/28 05:08:57;;;;;;;;;;;;;;;20.68;24.47;98761.59;4367871;32;20006;-59
2021/04/28 05:11:23;;;;;;;;;;;;;;;20.77;24.23;98758.78;4372855;32;20308;-58
2021/04/28 05:13:49;;;;;;;;;;;;;;;20.74;24.33;98764.13;4367271;32;19981;-58
2021/04/28 05:16:15;;;;;;;;;;;;;;;20.74;24.43;98764.13;4359413;32;20306;-58
2021/04/28 05:18:41;;;;;;;;;;;;;;;20.56;24.85;98762.62;4364108;32;19959;-59
2021/04/28 05:21:07;;;;;;;;;;;;;;;20.71;24.45;98765.94;4370840;32;19963;-58
2021/04/28 05:23:33;;;;;;;;;;;;;;;20.89;24.11;98765.72;4369551;32;19970;-58
2021/04/28 05:25:59;;;;;;;;;;;;;;;20.89;24.06;98764.81;4365197;32;19939;-58
2021/04/28 05:28:25;;;;;;;;;;;;;;;20.86;24.32;98763.09;4365225;32;19943;-58
2021/04/28 05:30:51;;;;;;;;;;;;;;;20.87;24.20;98763.97;4364306;32;20392;-59
2021/04/28 05:33:17;;;;;;;;;;;;;;;20.90;24.15;98759.50;4368371;32;19947;-58
2021/04/28 05:35:43;;;;;;;;;;;;;;;20.97;24.04;98767.34;4364957;32;19936;-59
2021/04/28 05:38:09;;;;;;;;;;;;;;;20.92;24.21;98759.47;4367390;32;20038;-59
2021/04/28 05:40:35;;;;;;;;;;;;;;;20.88;24.23;98755.12;4365594;32;19967;-58
2021/04/28 05:43:00;;;;;;;;;;;;;;;20.86;24.33;98768.38;4366570;32;19990;-58
2021/04/28 05:45:26;;;;;;;;;;;;;;;20.85;24.34;98763.97;4366334;32;20623;-58
2021/04/28 05:47:52;;;;;;;;;;;;;;;20.83;24.33;98762.28;4365760;32;19992;-58
2021/04/28 05:50:18;;;;;;;;;;;;;;;20.87;24.50;98763.97;4362954;32;19989;-58
2021/04/28 05:52:44;;;;;;;;;;;;;;;20.77;24.59;98764.06;4367246;32;19989;-58
2021/04/28 05:55:10;;;;;;;;;;;;;;;20.73;24.76;98757.09;4365936;32;19944;-58
2021/04/28 05:57:36;;;;;;;;;;;;;;;20.72;24.72;98755.34;4363824;32;19960;-58
2021/04/28 06:00:02;;;;;;;;;;;;;;;20.82;24.51;98760.53;4367546;32;20351;-57
2021/04/28 06:02:28;;;;;;;;;;;;;;;20.83;24.20;98762.28;4371844;32;21613;-58
2021/04/28 06:04:53;;;;;;;;;;;;;;;20.90;24.24;98758.63;4358633;32;19978;-58
2021/04/28 06:07:19;;;;;;;;;;;;;;;20.84;24.47;98756.09;4356325;32;19951;-58
2021/04/28 06:09:45;;;;;;;;;;;;;;;20.91;24.32;98757.72;4364309;32;19964;-58
2021/04/28 06:12:11;;;;;;;;;;;;;;;20.94;24.39;98765.63;4371419;32;20311;-59
2021/04/28 06:14:37;;;;;;;;;;;;;;;20.89;24.28;98767.47;4365011;32;20007;-59
2021/04/28 06:17:06;;;;;;;;;;;;;;;20.95;24.40;98762.09;4358214;32;20412;-58
2021/04/28 06:19:32;;;;;;;;;;;;;;;20.92;24.39;98763.00;4359239;32;19955;-59
2021/04/28 06:21:58;;;;;;;;;;;;;;;21.02;24.09;98763.72;4357002;32;19978;-59
2021/04/28 06:24:24;;;;;;;;;;;;;;;20.94;24.19;98764.75;4360221;32;19959;-59
2021/04/28 06:26:50;;;;;;;;;;;;;;;20.96;24.44;98765.59;4371612;32;19951;-58
2021/04/28 06:29:17;;;;;;;;;;;;;;;20.87;24.25;98766.63;4367378;32;20375;-58
2021/04/28 06:31:42;;;;;;;;;;;;;;;20.95;24.24;98756.81;4356567;32;19970;-59
2021/04/28 06:34:09;;;;;;;;;;;;;;;20.93;24.33;98755.97;4363124;32;19952;-58
2021/04/28 06:36:35;;;;;;;;;;;;;;;20.89;24.34;98767.47;4366882;32;19963;-56
2021/04/28 06:39:01;;;;;;;;;;;;;;;20.96;24.48;98761.19;4371141;32;19963;-58
2021/04/28 06:41:27;;;;;;;;;;;;;;;20.91;24.33;98770.94;4355167;32;19970;-58
2021/04/28 06:43:53;;;;;;;;;;;;;;;20.94;24.35;98770.03;4358379;32;19943;-59
2021/04/28 06:46:19;;;;;;;;;;;;;;;20.96;24.30;98776.19;4368019;32;19947;-59
2021/04/28 06:48:45;;;;;;;;;;;;;;;20.92;24.27;98772.69;4369229;32;19977;-58
2021/04/28 06:51:10;;;;;;;;;;;;;;;21.01;24.35;98771.72;4356926;32;20024;-58
2021/04/28 06:53:36;;;;;;;;;;;;;;;21.06;24.18;98765.44;4356090;32;19993;-58
2021/04/28 06:56:02;;;;;;;;;;;;;;;21.05;24.21;98769.00;4366229;32;20089;-58
2021/04/28 06:58:30;;;;;;;;;;;;;;;21.01;24.31;98766.41;4370215;32;19995;-58
2021/04/28 07:00:56;;;;;;;;;;;;;;;21.02;24.35;98766.37;4360226;32;20004;-59
2021/04/28 07:03:22;;;;;;;;;;;;;;;21.02;24.23;98763.72;4354445;32;20050;-58
2021/04/28 07:05:48;;;;;;;;;;;;;;;20.99;24.38;98763.78;4360122;32;21003;-58
2021/04/28 07:08:14;;;;;;;;;;;;;;;20.99;24.34;98766.44;4355379;32;19970;-58
2021/04/28 07:10:41;;;;;;;;;;;;;;;21.03;24.40;98767.25;4362129;32;19994;-59
2021/04/28 07:13:06;;;;;;;;;;;;;;;21.06;24.30;98764.56;4370095;32;19955;-58
2021/04/28 07:15:33;;;;;;;;;;;;;;;21.07;24.24;98766.31;4364452;32;20366;-59
2021/04/28 07:17:59;;;;;;;;;;;;;;;21.12;24.15;98764.47;4356576;32;19956;-59
2021/04/28 07:20:25;;;;;;;;;;;;;;;21.10;24.24;98760.94;4358799;32;19973;-59
2021/04/28 07:22:51;;;;;;;;;;;;;;;21.10;24.21;98765.38;4370876;32;20324;-56
2021/04/28 07:25:17;;;;;;;;;;;;;;;21.14;24.17;98773.25;4367197;32;19973;-58
2021/04/28 07:27:43;;;;;;;;;;;;;;;21.13;24.20;98765.34;4356585;32;20308;-58
2021/04/28 07:30:10;;;;;;;;;;;;;;;21.09;24.30;98763.63;4355049;32;20014;-59
2021/04/28 07:32:36;;;;;;;;;;;;;;;21.10;24.43;98768.03;4369090;32;19974;-58
2021/04/28 07:35:02;;;;;;;;;;;;;;;21.11;24.28;98761.84;4370120;32;19952;-55
2021/04/28 07:37:28;;;;;;;;;;;;;;;21.17;24.22;98761.72;4356005;32;19979;-59
2021/04/28 07:39:54;;;;;;;;;;;;;;;21.16;24.35;98767.91;4355017;32;19983;-59
2021/04/28 07:42:20;;;;;;;;;;;;;;;21.14;24.24;98762.66;4368449;32;20339;-57
2021/04/28 07:44:46;;;;;;;;;;;;;;;21.16;24.33;98760.88;4356831;32;19959;-59
2021/04/28 07:47:12;;;;;;;;;;;;;;;21.14;24.36;98756.50;4368012;32;19969;-59
2021/04/28 07:49:38;;;;;;;;;;;;;;;21.20;24.18;98762.56;4369917;32;19955;-58
2021/04/28 07:52:04;;;;;;;;;;;;;;;21.18;24.12;98752.91;4358499;32;20005;-58
2021/04/28 07:54:30;;;;;;;;;;;;;;;21.14;24.31;98759.13;4356727;32;19981;-59
2021/04/28 10:53:00;;;;;;;;;;;;;;;18.77;29.16;98676.50;4436450;31;19965;-52
2021/04/28 10:55:25;;;;;;;;;;;;;;;18.77;29.16;98676.50;4416261;32;19947;-55
2021/04/28 10:57:51;;;;;;;;;;;;;;;19.04;28.33;98675.41;4421082;32;19993;-51
2021/04/28 11:00:17;;;;;;;;;;;;;;;19.63;27.43;98666.87;4424168;32;19942;-55
2021/04/28 11:02:43;;;;;;;;;;;;;;;20.06;26.77;98668.13;4421480;32;20659;-52
2021/04/28 11:05:09;;;;;;;;;;;;;;;20.38;26.33;98659.78;4426737;32;19974;-53
2021/04/28 11:07:35;;;;;;;;;;;;;;;20.58;26.04;98662.13;4430397;32;19953;-50
2021/04/28 11:10:01;;;;;;;;;;;;;;;20.73;25.86;98648.62;4430920;32;19961;-51
2021/04/28 11:12:27;;;;;;;;;;;;;;;20.87;25.62;98651.09;4436944;32;19988;-51
2021/04/28 11:14:53;;;;;;;;;;;;;;;20.97;25.48;98651.78;4433791;32;20342;-52
2021/04/28 11:17:19;;;;;;;;;;;;;;;21.04;25.38;98650.78;4434291;32;20031;-52
2021/04/28 11:19:45;;;;;;;;;;;;;;;21.11;25.32;98642.75;4432276;32;19957;-50
2021/04/28 11:22:11;;;;;;;;;;;;;;;21.15;25.25;98640.00;4436205;32;19937;-51
2021/04/28 11:24:37;;;;;;;;;;;;;;;21.19;25.24;98639.03;4438100;32;20247;-50
2021/04/28 11:27:02;;;;;;;;;;;;;;;21.23;25.19;98639.88;4437864;32;20578;-50
2021/04/28 11:29:32;;;;;;;;;;;;;;;21.27;25.18;98645.97;4424494;32;19942;-50
2021/04/28 11:31:59;;;;;;;;;;;;;;;21.29;25.16;98634.44;4435660;32;19980;-50
2021/04/28 11:34:25;;;;;;;;;;;;;;;21.30;25.20;98640.62;4436855;32;20303;-49
2021/04/28 11:36:50;;;;;;;;;;;;;;;21.32;25.18;98631.75;4437853;32;19957;-53
2021/04/28 11:39:16;;;;;;;;;;;;;;;21.37;25.16;98636.06;4437561;32;20308;-52
2021/04/28 11:41:44;;;;;;;;;;;;;;;21.39;25.17;98628.97;4436491;32;19950;-52
2021/04/28 11:44:10;;;;;;;;;;;;;;;21.40;25.17;98626.31;4437344;32;19989;-49
2021/04/28 11:46:36;;;;;;;;;;;;;;;21.40;25.20;98628.06;4436355;32;19957;-50
2021/04/28 11:49:03;;;;;;;;;;;;;;;21.43;25.20;98625.38;4436616;32;19964;-52
2021/04/28 11:51:28;;;;;;;;;;;;;;;21.49;25.18;98625.25;4436045;32;19987;-53
2021/04/28 11:53:55;;;;;;;;;;;;;;;21.45;25.23;98616.47;4433857;32;19953;-53
2021/04/28 11:56:20;;;;;;;;;;;;;;;21.50;25.22;98611.09;4442090;32;19987;-53
2021/04/28 11:58:46;;;;;;;;;;;;;;;21.50;25.27;98616.38;4423408;32;19958;-52
2021/04/28 12:01:13;;;;;;;;;;;;;;;21.51;25.26;98607.53;4435724;32;19950;-53
2021/04/28 12:03:39;;;;;;;;;;;;;;;21.52;25.24;98603.97;4420825;32;20014;-49
2021/04/28 12:06:04;;;;;;;;;;;;;;;21.54;25.28;98602.16;4428065;32;19953;-51
2021/04/28 12:08:30;;;;;;;;;;;;;;;21.57;25.28;98599.47;4434106;32;19938;-48
2021/04/28 12:10:56;;;;;;;;;;;;;;;21.56;25.29;98600.38;4419944;32;20005;-53
2021/04/28 12:13:22;;;;;;;;;;;;;;;21.57;25.35;98604.78;4433411;32;20089;-54
2021/04/28 12:15:48;;;;;;;;;;;;;;;21.64;25.29;98597.56;4433937;32;20017;-50
2021/04/28 12:18:14;;;;;;;;;;;;;;;21.63;25.34;98591.37;4433987;32;19972;-52
2021/04/28 12:20:41;;;;;;;;;;;;;;;21.67;25.30;98588.69;4425999;32;20053;-53
2021/04/28 12:23:07;;;;;;;;;;;;;;;21.65;25.35;98587.84;4418147;32;20331;-53
2021/04/28 12:25:32;;;;;;;;;;;;;;;21.63;25.38;98577.28;4424351;32;19964;-53
2021/04/28 12:27:58;;;;;;;;;;;;;;;21.66;25.40;98576.34;4434410;32;20533;-52
2021/04/28 12:30:27;;;;;;;;;;;;;;;21.68;25.38;98577.22;4429650;32;19991;-54
2021/04/28 12:32:53;;;;;;;;;;;;;;;21.69;25.40;98576.31;4418955;32;19964;-49
2021/04/28 12:35:20;;;;;;;;;;;;;;;21.71;25.38;98574.50;4420893;32;19950;-50
2021/04/28 12:37:45;;;;;;;;;;;;;;;21.72;25.39;98571.81;4433299;32;20004;-51
2021/04/28 12:40:11;;;;;;;;;;;;;;;21.74;25.39;98564.72;4431716;32;20281;-52
2021/04/28 12:42:38;;;;;;;;;;;;;;;21.76;25.40;98567.31;4419003;32;19999;-50
2021/04/28 12:45:03;;;;;;;;;;;;;;;21.76;25.41;98564.66;4418317;32;19953;-51
2021/04/28 12:47:29;;;;;;;;;;;;;;;21.81;25.38;98561.91;4433918;32;19976;-51
2021/04/28 12:49:55;;;;;;;;;;;;;;;21.82;25.38;98561.91;4433416;32;19942;-51
2021/04/28 12:52:21;;;;;;;;;;;;;;;21.83;25.41;98561.00;4418479;32;20334;-51
2021/04/28 12:54:47;;;;;;;;;;;;;;;21.85;25.39;98553.87;4418154;32;19950;-50
2021/04/28 12:57:13;;;;;;;;;;;;;;;21.86;25.41;98558.25;4430017;32;19954;-53
2021/04/28 12:59:41;;;;;;;;;;;;;;;21.89;25.40;98555.53;4433256;32;19961;-51
2021/04/28 13:02:07;;;;;;;;;;;;;;;21.90;25.43;98548.47;4421858;32;19998;-51
2021/04/28 13:04:34;;;;;;;;;;;;;;;21.92;25.41;98549.31;4417964;32;19955;-52
2021/04/28 13:07:00;;;;;;;;;;;;;;;21.92;25.47;98543.16;4428208;32;20377;-53
2021/04/28 13:09:26;;;;;;;;;;;;;;;21.96;25.50;98547.47;4431570;32;19987;-51
2021/04/28 13:11:51;;;;;;;;;;;;;;;21.94;25.51;98536.03;4424065;32;19962;-52
2021/04/28 13:14:17;;;;;;;;;;;;;;;21.97;25.48;98542.09;4431863;32;19958;-49
2021/04/28 13:16:44;;;;;;;;;;;;;;;21.99;25.50;98544.72;4432902;32;19965;-52
2021/04/28 13:19:11;;;;;;;;;;;;;;;21.99;25.50;98542.97;4432610;32;19986;-51
2021/04/28 13:21:37;;;;;;;;;;;;;;;22.01;25.53;98543.78;4432657;32;19957;-52
2021/04/28 13:24:02;;;;;;;;;;;;;;;22.03;25.50;98535.78;4432653;32;19982;-46
2021/04/28 13:26:28;;;;;;;;;;;;;;;22.07;25.47;98529.53;4429077;32;20010;-52
2021/04/28 13:28:56;;;;;;;;;;;;;;;22.09;25.49;98532.13;4417855;32;20014;-50
2021/04/28 13:31:22;;;;;;;;;;;;;;;22.11;25.47;98517.94;4420363;32;24531;-49
2021/04/28 13:33:48;;;;;;;;;;;;;;;22.13;25.45;98521.41;4432330;32;19995;-52
2021/04/28 13:36:14;;;;;;;;;;;;;;;22.17;25.45;98517.78;4428732;32;19987;-50
2021/04/28 13:38:40;;;;;;;;;;;;;;;22.20;25.50;98508.88;4417094;32;20386;-51
2021/04/28 13:41:06;;;;;;;;;;;;;;;22.23;25.45;98499.97;4417476;32;19962;-52
2021/04/28 13:43:32;;;;;;;;;;;;;;;22.25;25.45;98503.47;4432886;32;19945;-52
2021/04/28 13:45:57;;;;;;;;;;;;;;;22.26;25.50;98489.28;4433115;32;20274;-53
2021/04/28 13:48:23;;;;;;;;;;;;;;;22.27;25.49;98491.91;4432447;32;19981;-52
2021/04/28 13:50:49;;;;;;;;;;;;;;;22.27;25.49;98493.69;4431541;32;19995;-52
2021/04/28 13:53:15;;;;;;;;;;;;;;;22.28;25.53;98503.38;4431863;32;19999;-53
2021/04/28 13:55:41;;;;;;;;;;;;;;;22.28;25.56;98488.34;4432490;32;19965;-50
2021/04/28 13:58:07;;;;;;;;;;;;;;;22.27;25.64;98488.38;4420836;32;19973;-49
2021/04/28 14:00:33;;;;;;;;;;;;;;;22.28;25.73;98483.03;4416634;32;20339;-54
2021/04/28 14:02:59;;;;;;;;;;;;;;;22.26;25.69;98478.69;4427986;32;19989;-52
2021/04/28 14:05:24;;;;;;;;;;;;;;;22.25;25.80;98480.47;4431816;32;20014;-54
2021/04/28 14:07:50;;;;;;;;;;;;;;;22.32;25.77;98483.84;4422857;32;20299;-52
2021/04/28 14:10:16;;;;;;;;;;;;;;;22.42;25.65;98469.44;4416618;32;19954;-49
2021/04/28 14:12:42;;;;;;;;;;;;;;;22.49;25.55;98471.94;4425042;32;20021;-53
2021/04/28 14:15:08;;;;;;;;;;;;;;;22.51;25.47;98471.00;4431281;32;19953;-51
2021/04/28 14:17:34;;;;;;;;;;;;;;;22.41;25.64;98467.69;4428618;32;20343;-59
2021/04/28 14:20:00;;;;;;;;;;;;;;;22.53;25.39;98460.34;4424726;32;19958;-56
2021/04/28 14:22:26;;;;;;;;;;;;;;;22.15;25.06;98460.41;4424176;32;20034;-52
2021/04/28 14:24:52;;;;;;;;;;;;;;;22.40;24.71;98457.97;4425190;32;19954;-51
2021/04/28 14:27:18;;;;;;;;;;;;;;;22.55;24.44;98461.19;4422948;32;19953;-52
2021/04/28 14:29:44;;;;;;;;;;;;;;;22.58;24.94;98461.09;4422369;32;19969;-53
2021/04/28 14:32:09;;;;;;;;;;;;;;;22.61;24.83;98455.69;4429861;32;20072;-52
2021/04/28 14:34:35;;;;;;;;;;;;;;;22.60;24.87;98452.19;4417153;32;20013;-51
2021/04/28 14:37:01;;;;;;;;;;;;;;;22.51;25.15;98454.19;4416752;32;20040;-54
2021/04/28 14:39:27;;;;;;;;;;;;;;;22.51;25.27;98457.75;4415955;32;20002;-53
2021/04/28 14:41:53;;;;;;;;;;;;;;;22.57;25.23;98457.56;4417224;32;19950;-54
2021/04/28 14:44:20;;;;;;;;;;;;;;;22.55;25.29;98447.91;4423244;32;20352;-52
2021/04/28 14:46:46;;;;;;;;;;;;;;;22.45;25.50;98453.44;4423158;32;19958;-52
2021/04/28 14:49:12;;;;;;;;;;;;;;;22.42;25.62;98448.22;4417021;32;19969;-51
2021/04/28 14:51:37;;;;;;;;;;;;;;;22.42;25.66;98456.19;4417058;32;19996;-55
2021/04/28 14:54:03;;;;;;;;;;;;;;;22.40;25.74;98444.72;4406588;32;19977;-54
2021/04/28 14:56:29;;;;;;;;;;;;;;;22.42;25.76;98442.91;4401618;32;20011;-50
2021/04/28 14:58:55;;;;;;;;;;;;;;;22.45;25.80;98444.59;4411744;32;19962;-53
2021/04/28 15:01:21;;;;;;;;;;;;;;;22.37;25.90;98447.44;4416549;32;19946;-54
2021/04/28 15:03:47;;;;;;;;;;;;;;;22.20;26.19;98441.75;4407855;32;19951;-49
2021/04/28 15:06:13;;;;;;;;;;;;;;;22.17;26.27;98440.91;4400558;32;19954;-52
2021/04/28 15:08:39;;;;;;;;;;;;;;;22.42;25.92;98434.97;4414246;32;19958;-53
2021/04/28 15:11:05;;;;;;;;;;;;;;;22.38;25.99;98435.09;4416167;32;20050;-53
2021/04/28 15:13:31;;;;;;;;;;;;;;;22.42;25.99;98440.25;4414963;32;20323;-52
2021/04/28 15:15:57;;;;;;;;;;;;;;;22.50;25.88;98448.03;4411645;32;19973;-51
2021/04/28 15:18:23;;;;;;;;;;;;;;;22.36;26.03;98443.06;4414992;32;20080;-54
2021/04/28 15:20:48;;;;;;;;;;;;;;;22.36;26.15;98437.75;4411944;32;21354;-53
2021/04/28 15:23:14;;;;;;;;;;;;;;;22.40;26.12;98442.06;4415445;32;19954;-53
2021/04/28 15:25:40;;;;;;;;;;;;;;;22.35;26.28;98436.03;4415401;32;19954;-52
2021/04/28 15:28:06;;;;;;;;;;;;;;;22.38;26.24;98433.28;4412809;32;20006;-49
2021/04/28 15:30:32;;;;;;;;;;;;;;;22.41;26.27;98441.19;4409110;32;20318;-53
2021/04/28 15:32:58;;;;;;;;;;;;;;;22.33;26.39;98430.75;4419900;32;19982;-54
2021/04/28 15:35:24;;;;;;;;;;;;;;;22.48;26.29;98435.69;4409948;32;19978;-57